Time;durP1;ratioP1;P1;durP2;ratioP2;P2;SDS_P1;SDS_P2;PMS_P1;PMS_P2;Temp;Humidity;BMP_temperature;BMP_pressure;BME280_temperature;BME280_humidity;BME280_pressure;Samples;Min_cycle;Max_cycle;Signal;HPM_P1;HPM_P2
2023/03/26 00:00:42;;;;;;;9.27;1.60;;;9.60;99.90;;;;;;4990544;28;20206;-72
2023/03/26 00:03:10;;;;;;;14.40;1.60;;;;;;;;;;4990680;28;20194;-73
2023/03/26 00:05:36;;;;;;;9.00;1.80;;;9.60;99.90;;;;;;4990435;28;20219;-72
2023/03/26 00:08:02;;;;;;;8.70;1.60;;;10.10;99.90;;;;;;4990885;28;20518;-72
2023/03/26 00:10:28;;;;;;;5.63;1.40;;;9.60;99.90;;;;;;4990163;28;20187;-72
2023/03/26 00:12:53;;;;;;;6.63;1.23;;;9.60;99.90;;;;;;4990017;28;20214;-72
2023/03/26 00:15:19;;;;;;;8.53;1.03;;;9.30;99.90;;;;;;4991190;28;20230;-72
2023/03/26 00:17:47;;;;;;;6.30;1.10;;;9.20;99.90;;;;;;4989787;28;20199;-72
2023/03/26 00:20:13;;;;;;;4.73;0.80;;;9.10;99.90;;;;;;4989712;28;20412;-72
2023/03/26 00:22:40;;;;;;;3.77;0.90;;;9.00;99.90;;;;;;4991107;28;20171;-72
2023/03/26 00:25:06;;;;;;;8.10;1.00;;;9.00;99.90;;;;;;4991040;28;20219;-71
2023/03/26 00:27:32;;;;;;;5.07;0.80;;;9.00;99.90;;;;;;4990751;28;20244;-72
2023/03/26 00:30:00;;;;;;;4.80;1.10;;;8.90;99.90;;;;;;4990332;28;20202;-72
2023/03/26 00:32:29;;;;;;;6.03;0.90;;;9.00;99.90;;;;;;4990636;28;20249;-72
2023/03/26 00:34:55;;;;;;;5.53;1.20;;;;;;;;;;4990416;28;20740;-73
2023/03/26 00:37:25;;;;;;;8.80;1.23;;;8.90;99.90;;;;;;4990525;28;20194;-73
2023/03/26 00:40:01;;;;;;;4.77;1.03;;;8.90;99.90;;;;;;4990334;28;20658;-73
2023/03/26 00:42:27;;;;;;;5.43;0.93;;;;;;;;;;4989434;28;20229;-73
2023/03/26 00:44:56;;;;;;;5.63;1.13;;;8.90;99.90;;;;;;4989741;28;20281;-71
2023/03/26 00:47:27;;;;;;;8.43;1.27;;;9.70;99.90;;;;;;4990319;28;20191;-72
2023/03/26 00:49:53;;;;;;;3.67;1.00;;;8.70;99.90;;;;;;4994033;28;20198;-72
2023/03/26 00:52:19;;;;;;;4.90;0.80;;;8.70;99.90;;;;;;4993778;28;20222;-71
2023/03/26 00:54:46;;;;;;;2.77;0.70;;;8.90;99.90;;;;;;4994237;28;20178;-72
2023/03/26 00:57:13;;;;;;;4.67;0.70;;;8.80;99.90;;;;;;4994316;28;20261;-72
2023/03/26 00:59:39;;;;;;;2.40;0.60;;;8.40;99.90;;;;;;4994201;28;20167;-72
2023/03/26 01:02:09;;;;;;;1.53;0.50;;;8.90;99.90;;;;;;4994103;28;20593;-73
2023/03/26 01:04:36;;;;;;;3.70;0.50;;;8.90;99.90;;;;;;4993668;28;20697;-72
2023/03/26 01:07:12;;;;;;;3.63;0.70;;;8.80;99.90;;;;;;4994190;28;20171;-73
2023/03/26 01:09:44;;;;;;;1.10;0.50;;;8.70;99.90;;;;;;4987226;28;20188;-73
2023/03/26 01:12:17;;;;;;;3.20;0.47;;;9.10;99.90;;;;;;4986779;28;20171;-73
2023/03/26 01:14:43;;;;;;;2.23;0.50;;;8.60;99.90;;;;;;4993457;28;20270;-73
2023/03/26 01:17:11;;;;;;;0.70;0.20;;;8.60;99.90;;;;;;4992721;28;20778;-73
2023/03/26 01:20:11;;;;;;;2.20;0.53;;;8.60;99.90;;;;;;4993680;28;20539;-74
2023/03/26 01:22:40;;;;;;;1.73;0.20;;;8.80;99.90;;;;;;4992317;28;20283;-74
2023/03/26 01:25:08;;;;;;;1.90;0.30;;;8.60;99.90;;;;;;4980038;28;20211;-74
2023/03/26 01:27:49;;;;;;;4.17;0.30;;;8.50;99.90;;;;;;4993169;28;20183;-74
2023/03/26 01:30:28;;;;;;;1.17;0.40;;;7.80;99.90;;;;;;4994168;28;20188;-74
2023/03/26 01:33:12;;;;;;;1.63;0.33;;;8.80;99.90;;;;;;4992263;28;20179;-74
2023/03/26 01:35:47;;;;;;;2.47;0.53;;;8.30;99.90;;;;;;4993272;28;20231;-73
2023/03/26 01:38:45;;;;;;;4.30;0.50;;;8.50;99.90;;;;;;4993213;28;20186;-74
2023/03/26 01:41:40;;;;;;;3.90;0.57;;;8.50;99.90;;;;;;4992721;28;20551;-74
2023/03/26 01:44:26;;;;;;;2.00;0.70;;;8.60;99.90;;;;;;4980138;28;20227;-73
2023/03/26 01:46:52;;;;;;;2.17;0.30;;;8.60;99.90;;;;;;4993373;28;20252;-73
2023/03/26 01:49:18;;;;;;;3.03;0.50;;;8.60;99.90;;;;;;4992779;28;20190;-73
2023/03/26 01:51:44;;;;;;;2.77;0.70;;;;;;;;;;4990025;28;20187;-74
2023/03/26 01:54:15;;;;;;;1.47;0.50;;;8.50;99.90;;;;;;4973951;28;20231;-73
2023/03/26 01:56:50;;;;;;;2.33;0.40;;;8.50;99.90;;;;;;4983068;28;20232;-73
2023/03/26 01:59:36;;;;;;;3.27;0.40;;;8.50;99.90;;;;;;4991284;28;20175;-74
2023/03/26 02:02:45;;;;;;;1.77;0.70;;;8.40;99.90;;;;;;4993085;28;20179;-73
2023/03/26 02:05:23;;;;;;;1.07;0.33;;;8.40;99.90;;;;;;4968271;28;20215;-73
2023/03/26 02:08:08;;;;;;;1.73;0.23;;;8.30;99.90;;;;;;4991047;28;20182;-73
2023/03/26 02:10:46;;;;;;;2.97;0.30;;;8.30;99.90;;;;;;4991564;28;20230;-72
2023/03/26 02:13:12;;;;;;;1.03;0.17;;;8.70;99.90;;;;;;4992916;28;20443;-73
2023/03/26 02:15:39;;;;;;;1.80;0.20;;;8.20;99.90;;;;;;4993024;28;20188;-73
2023/03/26 02:18:09;;;;;;;0.40;0.20;;;;;;;;;;4990058;28;20199;-73
2023/03/26 02:20:35;;;;;;;1.03;0.23;;;8.10;99.90;;;;;;4991888;28;20265;-73
2023/03/26 02:23:01;;;;;;;1.17;0.20;;;8.20;99.90;;;;;;4991779;28;20194;-73
2023/03/26 02:25:26;;;;;;;0.77;0.10;;;8.00;99.90;;;;;;4992712;28;20682;-73
2023/03/26 02:27:52;;;;;;;0.47;0.17;;;7.90;99.90;;;;;;4990154;28;20184;-73
2023/03/26 02:30:24;;;;;;;0.50;0.20;;;7.90;99.90;;;;;;4990167;28;20172;-73
2023/03/26 02:32:52;;;;;;;0.27;0.03;;;7.90;99.90;;;;;;4992730;28;20202;-74
2023/03/26 02:35:19;;;;;;;0.27;0.10;;;7.90;99.90;;;;;;4960162;28;20234;-74
2023/03/26 02:37:45;;;;;;;0.63;0.20;;;7.70;99.90;;;;;;4973299;28;20271;-72
2023/03/26 02:40:12;;;;;;;0.53;0.10;;;7.80;99.90;;;;;;4972540;28;20180;-72
2023/03/26 02:42:38;;;;;;;1.33;0.10;;;8.50;99.90;;;;;;4988902;28;20175;-72
2023/03/26 02:45:05;;;;;;;0.10;0.10;;;10.90;99.90;;;;;;4991571;28;20242;-72
2023/03/26 02:47:32;;;;;;;0.67;0.10;;;7.70;99.90;;;;;;4990943;28;20182;-73
2023/03/26 02:49:58;;;;;;;1.03;0.20;;;6.70;99.90;;;;;;4992121;28;20206;-74
2023/03/26 02:52:24;;;;;;;0.40;0.10;;;;;;;;;;4991206;28;20175;-73
2023/03/26 02:54:50;;;;;;;0.93;0.20;;;7.70;99.90;;;;;;4991757;28;20630;-73
2023/03/26 02:57:15;;;;;;;2.47;0.27;;;7.70;99.90;;;;;;4991701;28;20271;-73
2023/03/26 02:59:41;;;;;;;1.30;0.10;;;7.70;99.90;;;;;;4991727;28;20593;-73
2023/03/26 03:02:07;;;;;;;2.07;0.10;;;5.70;99.90;;;;;;4992332;28;20698;-73
2023/03/26 03:04:32;;;;;;;0.80;0.20;;;7.70;99.90;;;;;;4991712;28;20585;-73
2023/03/26 03:06:58;;;;;;;0.50;0.20;;;7.70;99.90;;;;;;4991609;28;20229;-73
2023/03/26 03:09:24;;;;;;;1.10;0.17;;;7.70;99.90;;;;;;4991163;28;20262;-74
2023/03/26 03:11:53;;;;;;;0.70;0.20;;;7.70;99.90;;;;;;4990564;28;20254;-72
2023/03/26 03:14:19;;;;;;;0.97;0.30;;;7.70;99.90;;;;;;4991513;28;20718;-71
2023/03/26 03:16:45;;;;;;;1.13;0.20;;;;;;;;;;4990916;28;20180;-72
2023/03/26 03:19:11;;;;;;;0.73;0.40;;;;;;;;;;4991095;28;20242;-71
2023/03/26 03:21:37;;;;;;;1.20;0.20;;;7.80;99.90;;;;;;4988066;28;20669;-71
2023/03/26 03:24:03;;;;;;;1.13;0.40;;;7.80;99.90;;;;;;4987921;28;20252;-71
2023/03/26 03:26:29;;;;;;;1.50;0.20;;;;;;;;;;4989400;28;20183;-71
2023/03/26 03:28:56;;;;;;;1.13;0.10;;;7.80;99.90;;;;;;4991017;28;20190;-73
2023/03/26 03:31:23;;;;;;;1.50;0.20;;;7.90;99.90;;;;;;4990746;28;20175;-73
2023/03/26 03:33:50;;;;;;;0.40;0.10;;;7.80;99.90;;;;;;4991661;28;20234;-72
2023/03/26 03:36:20;;;;;;;1.33;0.20;;;7.90;99.90;;;;;;4991412;28;20223;-71
2023/03/26 03:38:47;;;;;;;2.87;0.27;;;7.90;99.90;;;;;;4988849;28;20317;-72
2023/03/26 03:41:13;;;;;;;1.03;0.30;;;7.90;99.90;;;;;;4984517;28;20261;-72
2023/03/26 03:43:39;;;;;;;2.00;0.30;;;8.10;99.90;;;;;;4989880;28;20270;-73
2023/03/26 03:46:05;;;;;;;1.47;0.30;;;;;;;;;;4990163;28;20274;-74
2023/03/26 03:48:30;;;;;;;0.53;0.20;;;7.90;99.90;;;;;;4987956;28;20270;-74
2023/03/26 03:50:56;;;;;;;0.67;0.20;;;7.90;99.90;;;;;;4973938;28;20167;-73
2023/03/26 03:53:25;;;;;;;1.93;0.20;;;7.90;99.90;;;;;;4991682;28;20167;-73
2023/03/26 03:55:54;;;;;;;6.43;0.40;;;9.60;99.90;;;;;;4991522;28;20234;-74
2023/03/26 03:58:27;;;;;;;1.40;0.30;;;7.90;99.90;;;;;;4991392;28;20179;-74
2023/03/26 04:00:59;;;;;;;2.00;0.30;;;8.00;99.90;;;;;;4991504;28;20174;-73
2023/03/26 04:03:29;;;;;;;3.50;0.50;;;8.00;99.90;;;;;;4990443;28;20267;-73
2023/03/26 04:05:55;;;;;;;1.70;0.40;;;8.00;99.90;;;;;;4990720;28;20179;-73
2023/03/26 04:08:21;;;;;;;2.47;0.37;;;;;;;;;;4991511;28;20179;-73
2023/03/26 04:10:48;;;;;;;2.17;0.43;;;8.00;99.90;;;;;;4990282;28;20167;-73
2023/03/26 04:13:15;;;;;;;2.67;0.53;;;8.00;99.90;;;;;;4991286;28;20171;-73
2023/03/26 04:15:41;;;;;;;1.43;0.20;;;7.90;99.90;;;;;;4973360;28;20179;-73
2023/03/26 04:18:10;;;;;;;0.97;0.17;;;7.90;99.90;;;;;;4972915;28;20681;-73
2023/03/26 04:20:39;;;;;;;3.37;0.37;;;7.80;99.90;;;;;;4990389;28;20180;-73
2023/03/26 04:23:06;;;;;;;0.50;0.30;;;7.70;99.90;;;;;;4992694;28;20190;-72
2023/03/26 04:25:32;;;;;;;3.20;0.40;;;7.70;99.90;;;;;;4984462;28;20541;-73
2023/03/26 04:28:05;;;;;;;4.90;0.30;;;8.10;99.90;;;;;;4981803;28;20194;-73
2023/03/26 04:30:32;;;;;;;1.83;0.10;;;7.80;99.90;;;;;;4978894;28;20206;-75
2023/03/26 04:33:05;;;;;;;0.50;0.30;;;7.80;99.90;;;;;;4976497;28;20231;-75
2023/03/26 04:35:35;;;;;;;1.10;0.33;;;7.90;99.90;;;;;;4994155;28;20245;-72
2023/03/26 04:38:05;;;;;;;0.80;0.30;;;7.90;99.90;;;;;;4994606;28;20267;-75
2023/03/26 04:40:33;;;;;;;1.30;0.43;;;8.00;99.90;;;;;;4994703;28;20171;-73
2023/03/26 04:43:02;;;;;;;1.53;0.60;;;8.00;99.90;;;;;;4994120;28;20525;-73
2023/03/26 04:45:29;;;;;;;2.17;0.50;;;8.00;99.90;;;;;;4994293;28;20210;-72
2023/03/26 04:47:56;;;;;;;1.43;0.40;;;8.10;99.90;;;;;;4987205;28;20187;-72
2023/03/26 04:50:23;;;;;;;0.90;0.30;;;7.90;99.90;;;;;;4975469;28;20190;-73
2023/03/26 04:52:49;;;;;;;0.50;0.30;;;;;;;;;;4980839;28;20187;-73
2023/03/26 04:55:23;;;;;;;1.03;0.40;;;8.00;99.90;;;;;;4993710;28;20175;-72
2023/03/26 04:57:54;;;;;;;2.47;0.30;;;8.00;99.90;;;;;;4991588;28;20222;-74
2023/03/26 05:00:20;;;;;;;0.83;0.40;;;8.00;99.90;;;;;;4993549;28;20592;-73
2023/03/26 05:02:49;;;;;;;1.63;0.33;;;8.00;99.90;;;;;;4992701;28;20184;-73
2023/03/26 05:05:15;;;;;;;1.70;0.20;;;8.00;99.90;;;;;;4993714;28;20221;-73
2023/03/26 05:07:41;;;;;;;4.40;0.50;;;8.00;99.90;;;;;;4993904;28;20187;-73
2023/03/26 05:10:07;;;;;;;2.43;0.40;;;8.30;99.90;;;;;;4992702;28;20769;-73
2023/03/26 05:12:33;;;;;;;1.53;0.60;;;8.00;99.90;;;;;;4990966;28;20642;-73
2023/03/26 05:14:59;;;;;;;2.17;0.40;;;8.00;99.90;;;;;;4981170;28;20206;-73
2023/03/26 05:17:25;;;;;;;0.93;0.30;;;8.00;99.90;;;;;;4993271;28;20190;-74
2023/03/26 05:19:51;;;;;;;1.90;0.63;;;7.90;99.90;;;;;;4994283;28;20167;-75
2023/03/26 05:22:20;;;;;;;2.50;0.50;;;7.70;99.90;;;;;;4989530;28;20186;-77
2023/03/26 05:24:45;;;;;;;1.23;0.33;;;7.80;99.90;;;;;;4995106;28;20230;-76
2023/03/26 05:27:21;;;;;;;0.97;0.27;;;8.10;99.90;;;;;;4994488;28;20650;-76
2023/03/26 05:29:46;;;;;;;1.23;0.20;;;7.90;99.90;;;;;;4990018;28;20919;-72
2023/03/26 05:32:12;;;;;;;1.63;0.40;;;7.80;99.90;;;;;;4992078;28;20182;-73
2023/03/26 05:34:41;;;;;;;1.37;0.50;;;7.80;99.90;;;;;;4980521;28;20653;-73
2023/03/26 05:37:08;;;;;;;1.43;0.40;;;8.00;99.90;;;;;;4992599;28;20187;-72
2023/03/26 05:39:34;;;;;;;0.83;0.40;;;;;;;;;;4992848;28;20183;-71
2023/03/26 05:42:00;;;;;;;1.73;0.33;;;7.90;99.90;;;;;;4993119;28;20222;-72
2023/03/26 05:44:25;;;;;;;1.03;0.40;;;8.00;99.90;;;;;;4992063;28;20219;-72
2023/03/26 05:46:51;;;;;;;2.73;0.50;;;7.90;99.90;;;;;;4992390;28;20266;-71
2023/03/26 05:49:17;;;;;;;2.83;0.60;;;;;;;;;;4992616;28;20189;-72
2023/03/26 05:51:42;;;;;;;0.90;0.53;;;7.90;99.90;;;;;;4992252;28;20250;-72
2023/03/26 05:54:08;;;;;;;0.90;0.67;;;7.80;99.90;;;;;;4992911;28;20168;-72
2023/03/26 05:56:34;;;;;;;1.27;0.60;;;7.90;99.90;;;;;;4993508;28;20187;-72
2023/03/26 05:59:00;;;;;;;2.60;0.50;;;7.90;99.90;;;;;;4992636;28;20187;-72
2023/03/26 06:01:26;;;;;;;4.63;0.60;;;8.10;99.90;;;;;;4991995;28;20214;-72
2023/03/26 06:03:51;;;;;;;1.40;0.60;;;7.90;99.90;;;;;;4991936;28;20203;-72
2023/03/26 06:06:19;;;;;;;1.57;0.50;;;7.90;99.90;;;;;;4992175;28;20175;-72
2023/03/26 06:08:49;;;;;;;2.40;0.30;;;7.90;99.90;;;;;;4991622;28;20198;-73
2023/03/26 06:11:16;;;;;;;2.57;0.40;;;7.90;99.90;;;;;;4992805;28;20210;-71
2023/03/26 06:13:42;;;;;;;2.50;0.30;;;7.90;99.90;;;;;;4992087;28;20171;-71
2023/03/26 06:16:12;;;;;;;2.90;0.40;;;7.30;99.90;;;;;;4992432;28;20530;-71
2023/03/26 06:18:38;;;;;;;2.30;0.50;;;7.60;99.90;;;;;;4992121;28;20171;-71
2023/03/26 06:21:05;;;;;;;4.83;0.83;;;7.70;99.90;;;;;;4991702;28;20258;-71
2023/03/26 06:23:31;;;;;;;4.10;0.70;;;;;;;;;;4992116;28;20185;-71
2023/03/26 06:25:57;;;;;;;1.40;0.70;;;;;;;;;;4992015;28;20181;-71
2023/03/26 06:28:23;;;;;;;1.40;0.70;;;7.80;99.90;;;;;;4992640;28;20241;-71
2023/03/26 06:30:49;;;;;;;1.20;0.73;;;8.10;99.90;;;;;;4991717;28;20658;-74
2023/03/26 06:33:15;;;;;;;1.20;0.70;;;;;;;;;;4992081;28;20203;-73
2023/03/26 06:35:42;;;;;;;5.20;0.80;;;7.80;99.90;;;;;;4991952;28;20276;-74
2023/03/26 06:38:08;;;;;;;2.57;0.77;;;7.90;99.90;;;;;;4981909;28;20250;-74
2023/03/26 06:40:34;;;;;;;1.67;0.60;;;7.90;99.90;;;;;;4987370;28;20175;-74
2023/03/26 06:43:00;;;;;;;2.20;0.70;;;7.90;99.90;;;;;;4992119;28;20597;-74
2023/03/26 06:45:27;;;;;;;3.27;0.67;;;7.90;99.90;;;;;;4990683;28;20225;-72
2023/03/26 06:47:53;;;;;;;0.70;0.60;;;8.10;99.90;;;;;;4954765;28;20184;-73
2023/03/26 06:50:19;;;;;;;0.70;0.60;;;7.90;99.90;;;;;;4979311;28;20167;-72
2023/03/26 06:52:44;;;;;;;2.33;0.63;;;8.00;99.90;;;;;;4991938;28;20171;-72
2023/03/26 06:55:10;;;;;;;2.63;0.50;;;7.70;99.90;;;;;;4990696;28;20736;-72
2023/03/26 06:57:36;;;;;;;0.90;0.60;;;8.00;99.90;;;;;;4991512;28;20167;-72
2023/03/26 07:00:04;;;;;;;0.80;0.47;;;8.00;99.90;;;;;;4991635;28;20175;-72
2023/03/26 07:02:30;;;;;;;0.70;0.50;;;8.10;99.90;;;;;;4975011;28;20179;-73
2023/03/26 07:04:57;;;;;;;0.87;0.50;;;8.10;99.90;;;;;;4986509;28;20214;-72
2023/03/26 07:07:23;;;;;;;4.40;0.50;;;8.20;99.90;;;;;;4991715;28;20278;-72
2023/03/26 07:09:49;;;;;;;0.87;0.60;;;8.20;99.90;;;;;;4990312;28;20202;-72
2023/03/26 07:12:15;;;;;;;1.10;0.43;;;8.30;99.90;;;;;;4990994;28;20167;-72
2023/03/26 07:14:41;;;;;;;1.30;0.33;;;8.30;99.90;;;;;;4991408;28;20286;-72
2023/03/26 07:17:07;;;;;;;0.80;0.50;;;8.00;99.90;;;;;;4990898;28;20195;-72
2023/03/26 07:19:32;;;;;;;1.23;0.50;;;8.40;99.90;;;;;;4990954;28;20179;-72
2023/03/26 07:21:58;;;;;;;0.50;0.30;;;8.30;99.90;;;;;;4981141;28;20198;-72
2023/03/26 07:24:24;;;;;;;0.13;0.10;;;8.40;99.90;;;;;;4971189;28;20218;-73
2023/03/26 07:27:02;;;;;;;0.10;0.10;;;8.50;99.90;;;;;;4988573;28;20245;-70
2023/03/26 07:29:44;;;;;;;0.20;0.10;;;8.40;99.90;;;;;;4990422;28;20179;-69
2023/03/26 07:32:42;;;;;;;0.77;0.30;;;8.40;99.90;;;;;;4989917;28;20179;-70
2023/03/26 07:35:41;;;;;;;0.20;0.13;;;8.50;99.90;;;;;;4990250;28;20223;-69
2023/03/26 07:38:45;;;;;;;1.07;0.20;;;8.70;99.90;;;;;;4968800;28;20881;-71
2023/03/26 07:41:27;;;;;;;1.50;0.40;;;8.60;99.90;;;;;;4990310;28;20183;-71
2023/03/26 07:44:22;;;;;;;0.37;0.30;;;8.60;99.90;;;;;;4991053;28;20199;-71
2023/03/26 07:46:52;;;;;;;1.60;0.20;;;8.70;99.90;;;;;;4990841;28;20190;-71
2023/03/26 07:49:19;;;;;;;1.27;0.30;;;8.80;99.90;;;;;;4990787;28;20183;-70
2023/03/26 07:51:45;;;;;;;1.70;1.60;;;8.90;99.90;;;;;;4991613;28;20175;-71
2023/03/26 07:54:11;;;;;;;1.60;0.93;;;9.00;99.90;;;;;;4991677;28;20175;-71
2023/03/26 07:56:45;;;;;;;0.83;0.40;;;9.00;99.90;;;;;;4974390;28;20171;-71
2023/03/26 07:59:24;;;;;;;0.47;0.20;;;9.70;99.90;;;;;;4994616;28;20176;-71
2023/03/26 08:02:04;;;;;;;0.20;0.10;;;9.00;99.90;;;;;;4994750;28;20163;-72
2023/03/26 08:04:49;;;;;;;0.77;0.10;;;9.10;99.90;;;;;;4995620;28;20215;-71
2023/03/26 08:07:17;;;;;;;1.10;0.30;;;9.20;99.90;;;;;;4993723;28;20179;-72
2023/03/26 08:10:01;;;;;;;0.53;0.50;;;9.30;99.90;;;;;;4994531;28;20179;-72
2023/03/26 08:12:39;;;;;;;0.60;0.30;;;9.40;99.90;;;;;;4995448;28;20171;-72
2023/03/26 08:15:29;;;;;;;0.23;0.23;;;9.40;99.90;;;;;;4995132;28;20178;-73
2023/03/26 08:18:15;;;;;;;0.50;0.10;;;9.70;99.90;;;;;;4963093;28;20197;-72
2023/03/26 08:20:48;;;;;;;1.03;0.20;;;9.70;99.90;;;;;;4993849;28;20187;-73
2023/03/26 08:23:14;;;;;;;0.33;0.20;;;9.70;99.90;;;;;;4994989;28;20183;-73
2023/03/26 08:26:01;;;;;;;1.10;0.20;;;9.80;99.90;;;;;;4994634;28;20211;-72
2023/03/26 08:28:47;;;;;;;1.23;0.30;;;9.90;99.90;;;;;;4994194;28;20241;-71
2023/03/26 08:31:16;;;;;;;0.23;0.20;;;10.20;99.90;;;;;;4993739;28;20183;-71
2023/03/26 08:33:42;;;;;;;1.37;0.30;;;10.10;99.90;;;;;;4994213;28;20186;-73
2023/03/26 08:36:08;;;;;;;0.50;0.20;;;10.10;99.90;;;;;;4994075;28;20293;-71
2023/03/26 08:38:34;;;;;;;0.67;0.20;;;10.40;99.90;;;;;;4994804;28;20219;-72
2023/03/26 08:41:00;;;;;;;0.50;0.20;;;;;;;;;;4994861;28;20647;-73
2023/03/26 08:44:02;;;;;;;0.20;0.20;;;10.40;99.90;;;;;;4976108;28;20642;-73
2023/03/26 08:46:29;;;;;;;0.37;0.23;;;;;;;;;;4993930;28;20658;-71
2023/03/26 08:49:31;;;;;;;0.80;0.30;;;10.50;99.90;;;;;;4994634;28;20173;-72
2023/03/26 08:52:31;;;;;;;0.50;0.33;;;10.30;99.90;;;;;;4994098;28;20214;-72
2023/03/26 08:55:27;;;;;;;1.30;0.50;;;12.30;99.90;;;;;;4963431;28;20668;-74
2023/03/26 08:58:20;;;;;;;1.10;0.40;;;10.00;99.90;;;;;;4976381;28;20234;-72
2023/03/26 09:00:46;;;;;;;1.30;0.50;;;;;;;;;;4992431;28;20656;-70
2023/03/26 09:03:38;;;;;;;0.50;0.20;;;10.00;99.90;;;;;;4993935;28;20250;-69
2023/03/26 09:06:04;;;;;;;0.43;0.30;;;;;;;;;;4992692;28;20226;-70
2023/03/26 09:08:35;;;;;;;1.07;0.23;;;9.90;99.90;;;;;;4992669;28;20178;-70
2023/03/26 09:11:02;;;;;;;0.40;0.30;;;;;;;;;;4977054;28;20172;-71
2023/03/26 09:13:45;;;;;;;0.23;0.20;;;10.20;99.90;;;;;;4975022;28;20180;-70
2023/03/26 09:16:32;;;;;;;0.63;0.20;;;10.20;99.90;;;;;;4974572;28;20251;-73
2023/03/26 09:19:00;;;;;;;0.50;0.30;;;10.20;99.90;;;;;;4975116;28;20179;-68
2023/03/26 09:21:42;;;;;;;0.63;0.20;;;10.10;99.90;;;;;;4974896;28;20662;-69
2023/03/26 09:24:27;;;;;;;0.30;0.20;;;11.90;99.90;;;;;;4973740;28;20271;-68
2023/03/26 09:27:22;;;;;;;0.40;0.40;;;10.20;99.90;;;;;;4974358;28;20627;-68
2023/03/26 09:29:58;;;;;;;2.30;0.43;;;10.30;99.90;;;;;;4992332;28;20179;-69
2023/03/26 09:33:18;;;;;;;0.27;0.20;;;10.40;99.90;;;;;;4993324;28;20245;-68
2023/03/26 09:35:59;;;;;;;0.50;0.30;;;10.40;99.90;;;;;;4927420;29;20309;-69
2023/03/26 09:38:34;;;;;;;0.37;0.30;;;10.40;99.90;;;;;;4954813;28;20180;-68
2023/03/26 09:41:06;;;;;;;1.10;0.60;;;10.30;99.90;;;;;;4971648;28;20188;-68
2023/03/26 09:44:01;;;;;;;0.83;0.50;;;10.20;99.90;;;;;;4974367;28;20172;-68
2023/03/26 09:46:54;;;;;;;0.83;0.43;;;10.30;99.90;;;;;;4973331;28;20196;-68
2023/03/26 09:49:33;;;;;;;0.70;0.40;;;10.50;99.90;;;;;;4973069;28;20184;-69
2023/03/26 09:52:08;;;;;;;0.67;0.30;;;10.80;99.90;;;;;;4974312;28;20511;-69
2023/03/26 09:55:01;;;;;;;1.23;0.30;;;10.80;99.90;;;;;;4972837;28;20183;-69
2023/03/26 09:57:44;;;;;;;0.40;0.30;;;11.20;99.90;;;;;;4963841;28;20655;-69
2023/03/26 10:00:27;;;;;;;0.97;0.27;;;11.00;99.90;;;;;;4973761;28;20251;-69
2023/03/26 10:03:24;;;;;;;1.33;0.40;;;11.00;99.90;;;;;;4974010;28;20482;-68
2023/03/26 10:05:53;;;;;;;3.23;0.50;;;11.00;99.90;;;;;;4973367;28;20265;-68
2023/03/26 10:08:40;;;;;;;2.10;0.50;;;11.10;99.90;;;;;;4973288;28;20183;-68
2023/03/26 10:11:33;;;;;;;2.63;0.70;;;11.00;99.90;;;;;;4971312;28;20183;-68
2023/03/26 10:14:24;;;;;;;1.73;0.70;;;11.00;99.90;;;;;;4971810;28;20611;-68
2023/03/26 10:17:24;;;;;;;1.50;0.70;;;10.60;99.90;;;;;;4973395;28;20178;-68
2023/03/26 10:20:16;;;;;;;1.80;0.70;;;10.60;99.90;;;;;;4970248;28;20183;-68
2023/03/26 10:23:17;;;;;;;2.07;0.90;;;10.40;99.90;;;;;;4972027;28;20195;-68
2023/03/26 10:26:04;;;;;;;1.33;0.60;;;10.30;99.90;;;;;;4971750;28;20206;-68
2023/03/26 10:29:03;;;;;;;2.40;0.60;;;10.30;99.90;;;;;;4972548;28;20172;-69
2023/03/26 10:31:57;;;;;;;2.03;0.63;;;10.50;99.90;;;;;;4961832;28;20247;-69
2023/03/26 10:35:14;;;;;;;1.93;0.90;;;10.70;99.90;;;;;;4967184;28;20216;-69
2023/03/26 10:38:01;;;;;;;1.40;0.90;;;10.90;99.90;;;;;;4932381;29;20252;-69
2023/03/26 10:40:48;;;;;;;3.47;1.17;;;11.10;99.90;;;;;;4932115;29;20699;-69
2023/03/26 10:43:28;;;;;;;1.10;0.90;;;11.40;99.90;;;;;;4966934;28;20183;-69
2023/03/26 10:46:21;;;;;;;2.40;1.00;;;11.90;99.90;;;;;;4972563;28;20303;-69
2023/03/26 10:48:50;;;;;;;3.17;1.50;;;12.10;99.90;;;;;;4972279;28;20172;-69
2023/03/26 10:51:50;;;;;;;3.77;1.47;;;12.20;99.90;;;;;;4973079;28;20172;-69
2023/03/26 10:54:40;;;;;;;2.80;1.80;;;12.20;99.90;;;;;;4988760;28;20214;-69
2023/03/26 10:57:23;;;;;;;18.80;2.37;;;12.30;99.90;;;;;;4992075;28;20241;-69
2023/03/26 10:59:50;;;;;;;2.70;1.93;;;12.30;99.90;;;;;;4992431;28;20257;-69
2023/03/26 11:02:28;;;;;;;4.97;2.00;;;12.20;99.90;;;;;;4989705;28;20194;-69
2023/03/26 11:05:06;;;;;;;4.13;2.30;;;12.00;99.90;;;;;;4990549;28;20641;-69
2023/03/26 11:07:43;;;;;;;3.20;2.40;;;12.00;99.90;;;;;;4986318;28;20242;-69
2023/03/26 11:10:29;;;;;;;4.30;2.87;;;11.90;99.90;;;;;;4979966;28;20185;-69
2023/03/26 11:13:14;;;;;;;3.80;2.77;;;12.50;99.90;;;;;;4971294;28;20183;-69
2023/03/26 11:15:43;;;;;;;5.22;3.22;;;13.50;99.90;;;;;;4972590;28;20211;-69
2023/03/26 11:18:27;;;;;;;6.22;3.20;;;13.60;99.90;;;;;;4973730;28;20210;-69
2023/03/26 11:21:13;;;;;;;7.38;3.80;;;13.50;99.90;;;;;;4972070;28;20176;-69
2023/03/26 11:23:41;;;;;;;9.73;4.03;;;13.20;99.90;;;;;;4960392;28;20186;-69
2023/03/26 11:26:16;;;;;;;11.07;4.93;;;12.70;99.90;;;;;;4985777;28;20761;-69
2023/03/26 11:29:12;;;;;;;9.40;4.60;;;12.20;99.90;;;;;;4988414;28;20258;-69
2023/03/26 11:31:52;;;;;;;9.63;4.00;;;11.70;99.90;;;;;;4990928;28;20214;-69
2023/03/26 11:34:52;;;;;;;9.57;3.87;;;11.40;99.90;;;;;;4990130;28;20225;-68
2023/03/26 11:37:30;;;;;;;6.90;3.30;;;11.00;99.90;;;;;;4969057;28;20202;-69
2023/03/26 11:39:58;;;;;;;8.00;3.57;;;11.10;99.90;;;;;;4989770;28;20233;-69
2023/03/26 11:42:24;;;;;;;7.13;3.23;;;11.50;99.90;;;;;;4991171;28;20175;-69
2023/03/26 11:44:50;;;;;;;3.87;2.30;;;;;;;;;;4991444;28;20219;-69
2023/03/26 11:47:27;;;;;;;6.00;2.40;;;11.60;99.90;;;;;;4991553;28;20171;-69
2023/03/26 11:49:56;;;;;;;11.00;2.77;;;12.90;99.90;;;;;;4990418;28;20171;-69
2023/03/26 11:52:22;;;;;;;5.63;2.40;;;12.70;99.90;;;;;;4990804;28;20179;-69
2023/03/26 11:54:49;;;;;;;4.30;1.90;;;11.30;99.90;;;;;;4991025;28;20528;-70
2023/03/26 11:57:24;;;;;;;5.77;2.03;;;11.40;99.90;;;;;;4978154;28;20180;-69
2023/03/26 11:59:55;;;;;;;4.37;2.00;;;11.10;99.90;;;;;;4984965;28;20261;-69
2023/03/26 12:02:37;;;;;;;5.90;2.10;;;11.50;99.90;;;;;;4990539;28;20208;-70
2023/03/26 12:05:12;;;;;;;7.53;2.73;;;11.50;99.90;;;;;;4991200;28;20206;-70
2023/03/26 12:07:55;;;;;;;8.43;2.50;;;11.50;99.90;;;;;;4963932;28;20827;-70
2023/03/26 12:10:22;;;;;;;5.47;1.87;;;11.30;99.90;;;;;;4964489;28;20184;-69
2023/03/26 12:12:50;;;;;;;6.30;2.00;;;11.30;99.90;;;;;;4971606;28;20262;-69
2023/03/26 12:15:19;;;;;;;6.90;1.80;;;11.50;99.90;;;;;;4971768;28;20259;-72
2023/03/26 12:17:46;;;;;;;7.57;1.77;;;11.60;99.90;;;;;;4980331;28;20726;-71
2023/03/26 12:20:24;;;;;;;6.47;1.80;;;11.70;99.90;;;;;;4984388;28;20259;-71
2023/03/26 12:22:51;;;;;;;3.53;1.40;;;11.80;99.90;;;;;;4984323;28;20183;-71
2023/03/26 12:25:19;;;;;;;5.43;1.97;;;11.90;99.90;;;;;;4972897;28;20298;-71
2023/03/26 12:28:01;;;;;;;9.20;1.73;;;12.00;99.90;;;;;;4971758;28;20589;-71
2023/03/26 12:30:30;;;;;;;7.57;1.80;;;12.00;99.90;;;;;;4984350;28;20180;-71
2023/03/26 12:33:02;;;;;;;5.63;1.70;;;11.70;99.90;;;;;;4969592;28;20535;-70
2023/03/26 12:35:30;;;;;;;4.70;1.73;;;11.70;99.90;;;;;;4969685;28;20362;-70
2023/03/26 12:38:13;;;;;;;3.50;1.30;;;11.60;99.90;;;;;;4952406;28;20195;-70
2023/03/26 12:40:41;;;;;;;5.73;1.60;;;11.50;99.90;;;;;;4951924;28;20655;-71
2023/03/26 12:43:22;;;;;;;5.40;1.60;;;11.50;99.90;;;;;;4951980;28;20181;-72
2023/03/26 12:45:53;;;;;;;6.63;1.90;;;11.30;99.90;;;;;;4972329;28;20266;-71
2023/03/26 12:48:19;;;;;;;10.03;1.90;;;11.40;99.90;;;;;;4955594;28;20173;-71
2023/03/26 12:51:11;;;;;;;4.07;1.80;;;11.30;99.90;;;;;;4955098;28;20524;-72
2023/03/26 12:53:56;;;;;;;10.00;2.03;;;11.30;99.90;;;;;;4955500;28;20169;-72
2023/03/26 12:56:51;;;;;;;6.20;1.90;;;11.30;99.90;;;;;;4954635;28;20180;-71
2023/03/26 12:59:32;;;;;;;6.70;1.70;;;11.50;99.90;;;;;;4955138;28;20258;-71
2023/03/26 13:02:13;;;;;;;9.33;1.77;;;11.40;99.90;;;;;;4973398;28;20176;-71
2023/03/26 13:04:51;;;;;;;6.23;1.83;;;11.40;99.90;;;;;;4973728;28;20254;-72
2023/03/26 13:07:35;;;;;;;7.70;1.70;;;11.10;99.90;;;;;;4973714;28;20271;-71
2023/03/26 13:10:02;;;;;;;7.17;1.90;;;;;;;;;;4974964;28;20628;-71
2023/03/26 13:12:39;;;;;;;9.40;2.37;;;11.10;99.90;;;;;;4973888;28;20184;-72
2023/03/26 13:15:14;;;;;;;9.83;2.50;;;11.00;99.90;;;;;;4973227;28;20255;-72
2023/03/26 13:17:43;;;;;;;13.03;3.47;;;11.40;99.90;;;;;;4972640;28;20183;-71
2023/03/26 13:20:46;;;;;;;15.63;3.87;;;11.60;99.90;;;;;;4972400;28;20235;-71
2023/03/26 13:23:38;;;;;;;5.90;2.17;;;11.60;99.90;;;;;;4974142;28;20562;-71
2023/03/26 13:26:25;;;;;;;9.53;2.10;;;11.10;99.90;;;;;;4974624;28;20762;-71
2023/03/26 13:29:22;;;;;;;8.50;1.97;;;11.10;99.90;;;;;;4974281;28;20183;-71
2023/03/26 13:31:54;;;;;;;6.70;2.30;;;11.00;99.90;;;;;;4972006;28;20263;-71
2023/03/26 13:34:43;;;;;;;11.67;2.40;;;11.20;99.90;;;;;;4975422;28;20176;-71